createdAt,value
2022-09-15T00:01:19.731Z,99237.45
2022-09-15T00:03:48.763Z,99232.98
2022-09-15T00:06:17.274Z,99233.92
2022-09-15T00:08:45.140Z,99235.22
2022-09-15T00:11:23.146Z,99231.25
2022-09-15T00:13:52.139Z,99229.07
2022-09-15T00:16:24.286Z,99233.09
2022-09-15T00:18:52.723Z,99233.14
2022-09-15T00:21:26.555Z,99228.71
2022-09-15T00:23:55.177Z,99224.04
2022-09-15T00:26:26.539Z,99228.48
2022-09-15T00:28:58.131Z,99222.94
2022-09-15T00:31:28.573Z,99220.70
2022-09-15T00:33:59.012Z,99228.21
2022-09-15T00:36:27.051Z,99231.56
2022-09-15T00:38:55.910Z,99238.27
2022-09-15T00:41:25.004Z,99240.61
2022-09-15T00:43:57.454Z,99237.96
2022-09-15T00:46:34.318Z,99233.95
2022-09-15T00:49:14.718Z,99229.94
2022-09-15T00:51:52.618Z,99227.79
2022-09-15T00:54:31.830Z,99231.43
2022-09-15T00:57:06.909Z,99233.05
2022-09-15T00:59:39.136Z,99231.68
2022-09-15T01:02:21.714Z,99232.23
2022-09-15T01:04:57.431Z,99234.05
2022-09-15T01:07:39.965Z,99231.34
2022-09-15T01:10:17.650Z,99229.50
2022-09-15T01:12:45.702Z,99228.48
2022-09-15T01:15:13.731Z,99228.77
2022-09-15T01:18:14.611Z,99224.25
2022-09-15T01:21:24.495Z,99216.27
2022-09-15T01:24:20.022Z,99214.58
2022-09-15T01:27:40.964Z,99215.80
2022-09-15T01:30:21.514Z,99209.52
2022-09-15T01:33:36.587Z,99226.76
2022-09-15T01:36:34.297Z,99229.84
2022-09-15T01:39:16.852Z,99223.11
2022-09-15T01:41:55.471Z,99223.73
2022-09-15T01:44:29.120Z,99223.71
2022-09-15T01:47:03.033Z,99223.70
2022-09-15T01:49:59.486Z,99225.64
2022-09-15T01:52:29.150Z,99225.70
2022-09-15T01:55:02.394Z,99220.02
2022-09-15T01:57:30.279Z,99219.58
2022-09-15T01:59:59.609Z,99220.70
2022-09-15T02:02:48.086Z,99219.96
2022-09-15T02:05:45.180Z,99223.23
2022-09-15T02:08:25.120Z,99229.65
2022-09-15T02:11:16.618Z,99222.95
2022-09-15T02:14:17.242Z,99224.09
2022-09-15T02:16:50.166Z,99221.04
2022-09-15T02:19:37.164Z,99223.04
2022-09-15T02:22:14.505Z,99225.55
2022-09-15T02:25:02.950Z,99225.85
2022-09-15T02:27:38.902Z,99223.16
2022-09-15T02:30:11.835Z,99224.83
2022-09-15T02:32:49.665Z,99225.37
2022-09-15T02:35:17.971Z,99229.63
2022-09-15T02:37:46.675Z,99228.66
2022-09-15T02:40:14.872Z,99224.55
2022-09-15T02:42:56.700Z,99227.08
2022-09-15T02:45:25.496Z,99228.58
2022-09-15T02:47:53.319Z,99220.98
2022-09-15T02:50:21.212Z,99224.09
2022-09-15T02:52:48.914Z,99223.80
2022-09-15T02:55:16.623Z,99221.77
2022-09-15T02:57:44.379Z,99221.84
2022-09-15T03:00:13.560Z,99218.89
2022-09-15T03:02:43.790Z,99217.27
2022-09-15T03:05:14.684Z,99215.27
2022-09-15T03:07:43.716Z,99213.00
2022-09-15T03:10:13.288Z,99217.29
2022-09-15T03:12:46.602Z,99218.65
2022-09-15T03:15:19.120Z,99217.02
2022-09-15T03:17:48.427Z,99219.38
2022-09-15T03:20:21.752Z,99218.83
2022-09-15T03:22:50.186Z,99214.42
2022-09-15T03:25:18.514Z,99217.81
2022-09-15T03:27:46.839Z,99206.70
2022-09-15T03:30:15.346Z,99214.34
2022-09-15T03:32:43.825Z,99216.04
2022-09-15T03:35:11.649Z,99216.41
2022-09-15T03:37:39.444Z,99216.98
2022-09-15T03:40:08.156Z,99215.77
2022-09-15T03:42:35.864Z,99217.71
2022-09-15T03:45:04.429Z,99222.17
2022-09-15T03:47:33.218Z,99219.23
2022-09-15T03:50:00.962Z,99220.05
2022-09-15T03:52:32.127Z,99220.77
2022-09-15T03:54:59.822Z,99217.98
2022-09-15T03:57:27.707Z,99223.20
2022-09-15T03:59:55.475Z,99223.70
2022-09-15T04:02:23.318Z,99221.12
2022-09-15T04:04:51.074Z,99222.14
2022-09-15T04:07:18.804Z,99225.63
2022-09-15T04:09:46.520Z,99226.50
2022-09-15T04:12:14.217Z,99225.77
2022-09-15T04:14:42.159Z,99231.90
2022-09-15T04:17:11.571Z,99230.60
2022-09-15T04:19:39.334Z,99231.96
2022-09-15T04:22:08.026Z,99227.89
2022-09-15T04:24:35.887Z,99226.44
2022-09-15T04:27:03.931Z,99229.30
2022-09-15T04:29:31.764Z,99231.30
2022-09-15T04:31:59.446Z,99232.48
2022-09-15T04:34:27.202Z,99236.21
2022-09-15T04:36:54.992Z,99239.89
2022-09-15T04:39:22.882Z,99232.86
2022-09-15T04:41:50.925Z,99231.70
2022-09-15T04:44:18.802Z,99228.55
2022-09-15T04:46:46.592Z,99231.45
2022-09-15T04:49:14.484Z,99230.45
2022-09-15T04:51:42.195Z,99230.60
2022-09-15T04:54:09.902Z,99226.08
2022-09-15T04:56:38.519Z,99226.33
2022-09-15T04:59:06.247Z,99227.85
2022-09-15T05:01:35.513Z,99225.83
2022-09-15T05:04:04.324Z,99227.54
2022-09-15T05:06:34.720Z,99236.31
2022-09-15T05:09:09.949Z,99236.02
2022-09-15T05:11:38.653Z,99234.46
2022-09-15T05:14:07.994Z,99231.67
2022-09-15T05:16:35.778Z,99230.73
2022-09-15T05:19:04.702Z,99227.23
2022-09-15T05:21:35.431Z,99230.54
2022-09-15T05:24:07.473Z,99232.45
2022-09-15T05:26:35.395Z,99239.36
2022-09-15T05:29:03.127Z,99239.38
2022-09-15T05:31:36.336Z,99239.40
2022-09-15T05:34:06.723Z,99235.61
2022-09-15T05:36:34.582Z,99235.59
2022-09-15T05:39:02.375Z,99235.33
2022-09-15T05:41:30.887Z,99232.31
2022-09-15T05:43:59.096Z,99230.95
2022-09-15T05:46:29.012Z,99236.50
2022-09-15T05:48:59.031Z,99239.33
2022-09-15T05:51:27.535Z,99237.62
2022-09-15T05:53:55.348Z,99243.39
2022-09-15T05:56:23.297Z,99240.79
2022-09-15T05:58:51.014Z,99238.91
2022-09-15T06:01:28.748Z,99234.86
2022-09-15T06:03:58.285Z,99239.59
2022-09-15T06:06:26.853Z,99242.17
2022-09-15T06:08:58.865Z,99244.84
2022-09-15T06:11:30.575Z,99243.41
2022-09-15T06:14:01.048Z,99241.64
2022-09-15T06:16:33.190Z,99240.39
2022-09-15T06:19:01.821Z,99244.60
2022-09-15T06:21:32.565Z,99243.80
2022-09-15T06:24:04.435Z,99242.83
2022-09-15T06:26:33.180Z,99245.70
2022-09-15T06:29:03.709Z,99246.42
2022-09-15T06:31:33.778Z,99248.27
2022-09-15T06:34:04.000Z,99247.77
2022-09-15T06:36:32.662Z,99248.31
2022-09-15T06:39:00.501Z,99251.21
2022-09-15T06:41:33.015Z,99249.94
2022-09-15T06:44:17.564Z,99251.84
2022-09-15T06:46:45.551Z,99252.40
2022-09-15T06:49:14.143Z,99248.37
2022-09-15T06:51:42.012Z,99250.21
2022-09-15T06:54:09.855Z,99246.89
2022-09-15T06:56:38.392Z,99245.59
2022-09-15T06:59:07.365Z,99249.90
2022-09-15T07:01:40.999Z,99254.20
2022-09-15T07:04:10.133Z,99255.98
2022-09-15T07:06:39.887Z,99260.63
2022-09-15T07:09:08.156Z,99259.41
2022-09-15T07:11:36.080Z,99258.09
2022-09-15T07:14:04.933Z,99257.29
2022-09-15T07:16:33.612Z,99258.21
2022-09-15T07:19:03.559Z,99262.79
2022-09-15T07:21:31.470Z,99254.95
2022-09-15T07:24:03.709Z,99252.19
2022-09-15T07:26:35.284Z,99259.02
2022-09-15T07:29:06.767Z,99258.89
2022-09-15T07:31:38.344Z,99251.38
2022-09-15T07:34:07.661Z,99253.44
2022-09-15T07:36:35.710Z,99253.92
2022-09-15T07:39:05.504Z,99257.23
2022-09-15T07:41:33.867Z,99259.89
2022-09-15T07:44:02.046Z,99262.17
2022-09-15T07:46:32.543Z,99264.05
2022-09-15T07:49:03.039Z,99258.88
2022-09-15T07:51:31.556Z,99255.70
2022-09-15T07:53:59.606Z,99258.41
2022-09-15T07:56:27.579Z,99258.13
2022-09-15T07:58:56.499Z,99255.62
2022-09-15T08:01:24.942Z,99250.27
2022-09-15T08:03:53.422Z,99262.76
2022-09-15T08:06:25.108Z,99260.71
2022-09-15T08:08:59.262Z,99261.00
2022-09-15T08:11:29.955Z,99266.06
2022-09-15T08:14:02.261Z,99267.71
2022-09-15T08:16:30.362Z,99271.50
2022-09-15T08:18:58.411Z,99268.05
2022-09-15T08:21:27.761Z,99266.67
2022-09-15T08:23:59.204Z,99263.55
2022-09-15T08:26:28.958Z,99260.90
2022-09-15T08:28:57.898Z,99262.95
2022-09-15T08:31:26.075Z,99262.73
2022-09-15T08:33:56.130Z,99257.58
2022-09-15T08:36:27.731Z,99251.78
2022-09-15T08:38:56.461Z,99259.68
2022-09-15T08:41:37.268Z,99257.31
2022-09-15T08:44:30.279Z,99253.39
2022-09-15T08:47:34.242Z,99243.01
2022-09-15T08:50:23.072Z,99258.05
2022-09-15T08:53:00.778Z,99256.45
2022-09-15T08:55:52.612Z,99256.49
2022-09-15T08:58:25.801Z,99258.05
2022-09-15T09:01:18.725Z,99253.11
2022-09-15T09:04:41.363Z,99252.55
2022-09-15T09:07:34.091Z,99257.46
2022-09-15T09:10:19.380Z,99254.62
2022-09-15T09:13:18.364Z,99264.95
2022-09-15T09:16:09.793Z,99267.77
2022-09-15T09:19:22.907Z,99267.38
2022-09-15T09:22:07.907Z,99264.17
2022-09-15T09:24:46.998Z,99257.59
2022-09-15T09:27:20.502Z,99256.36
2022-09-15T09:29:55.918Z,99255.08
2022-09-15T09:32:31.943Z,99254.15
2022-09-15T09:35:29.011Z,99247.59
2022-09-15T09:37:57.739Z,99246.40
2022-09-15T09:40:26.249Z,99240.42
2022-09-15T09:42:54.230Z,99237.12
2022-09-15T09:45:22.948Z,99238.58
2022-09-15T09:47:50.952Z,99241.02
2022-09-15T09:50:44.627Z,99236.35
2022-09-15T09:53:31.114Z,99234.14
2022-09-15T09:56:26.122Z,99229.78
2022-09-15T09:58:54.547Z,99227.36
2022-09-15T10:01:26.155Z,99230.08
2022-09-15T10:04:21.121Z,99236.42
2022-09-15T10:06:49.234Z,99229.92
2022-09-15T10:09:19.616Z,99220.13
2022-09-15T10:11:57.562Z,99218.50
2022-09-15T10:14:38.528Z,99224.10
2022-09-15T10:17:42.845Z,99224.41
2022-09-15T10:20:26.175Z,99220.64
2022-09-15T10:23:07.522Z,99220.33
2022-09-15T10:25:58.697Z,99216.82
2022-09-15T10:28:27.665Z,99211.48
2022-09-15T10:31:07.727Z,99210.97
2022-09-15T10:33:38.907Z,99211.23
2022-09-15T10:36:20.816Z,99204.80
2022-09-15T10:39:00.484Z,99208.02
2022-09-15T10:41:36.195Z,99204.17
2022-09-15T10:44:48.445Z,99208.29
2022-09-15T10:47:36.734Z,99214.85
2022-09-15T10:50:42.649Z,99216.77
2022-09-15T10:53:25.770Z,99220.05
2022-09-15T10:56:25.352Z,99219.42
2022-09-15T10:59:36.843Z,99217.27
2022-09-15T11:02:45.402Z,99217.83
2022-09-15T11:05:28.626Z,99212.38
2022-09-15T11:08:57.875Z,99206.69
2022-09-15T11:12:17.140Z,99207.06
2022-09-15T11:15:21.669Z,99209.36
2022-09-15T11:18:16.790Z,99208.00
2022-09-15T11:21:27.551Z,99212.73
2022-09-15T11:24:27.072Z,99216.45
2022-09-15T11:27:06.457Z,99224.03
2022-09-15T11:30:04.346Z,99225.02
2022-09-15T11:33:02.108Z,99225.13
2022-09-15T11:35:39.287Z,99223.49
2022-09-15T11:38:53.097Z,99220.09
2022-09-15T11:41:23.888Z,99219.06
2022-09-15T11:44:22.356Z,99213.63
2022-09-15T11:47:21.053Z,99216.20
2022-09-15T11:50:14.583Z,99216.70
2022-09-15T11:53:01.211Z,99217.02
2022-09-15T11:55:38.314Z,99223.17
2022-09-15T11:58:09.134Z,99219.49
2022-09-15T12:00:48.728Z,99217.11
2022-09-15T12:03:46.018Z,99211.79
2022-09-15T12:06:45.833Z,99216.02
2022-09-15T12:09:18.249Z,99213.88
2022-09-15T12:11:49.758Z,99219.64
2022-09-15T12:14:41.290Z,99217.31
2022-09-15T12:17:37.762Z,99213.73
2022-09-15T12:20:23.510Z,99215.45
2022-09-15T12:23:12.072Z,99214.59
2022-09-15T12:25:55.544Z,99217.05
2022-09-15T12:28:24.768Z,99223.58
2022-09-15T12:31:14.477Z,99225.84
2022-09-15T12:33:42.272Z,99216.02
2022-09-15T12:36:47.447Z,99220.02
2022-09-15T12:39:37.383Z,99218.63
2022-09-15T12:42:31.356Z,99217.55
2022-09-15T12:45:19.571Z,99221.91
2022-09-15T12:48:33.587Z,99221.88
2022-09-15T12:51:10.771Z,99226.39
2022-09-15T12:54:02.644Z,99226.45
2022-09-15T12:56:33.952Z,99224.16
2022-09-15T12:59:07.574Z,99222.64
2022-09-15T13:01:49.584Z,99222.61
2022-09-15T13:04:41.891Z,99222.38
2022-09-15T13:07:32.688Z,99215.38
2022-09-15T13:10:10.759Z,99214.66
2022-09-15T13:12:49.568Z,99221.13
2022-09-15T13:15:18.953Z,99224.52
2022-09-15T13:17:47.731Z,99220.91
2022-09-15T13:20:23.815Z,99217.18
2022-09-15T13:22:54.163Z,99218.97
2022-09-15T13:25:29.708Z,99212.05
2022-09-15T13:28:01.211Z,99209.73
2022-09-15T13:31:05.186Z,99206.25
2022-09-15T13:41:11.339Z,99214.34
2022-09-15T13:44:19.564Z,99211.95
2022-09-15T13:47:20.241Z,99207.33
2022-09-15T13:50:40.646Z,99202.45
2022-09-15T13:53:53.171Z,99205.49
2022-09-15T13:56:41.426Z,99201.52
2022-09-15T13:59:31.632Z,99199.96
2022-09-15T14:02:00.777Z,99204.81
2022-09-15T14:04:31.735Z,99203.40
2022-09-15T14:07:01.996Z,99199.39
2022-09-15T14:09:42.104Z,99200.34
2022-09-15T14:12:14.937Z,99192.83
2022-09-15T14:14:47.843Z,99191.79
2022-09-15T14:17:26.696Z,99190.11
2022-09-15T14:19:58.834Z,99193.60
2022-09-15T14:22:35.542Z,99192.63
2022-09-15T14:25:14.395Z,99194.42
2022-09-15T14:27:49.877Z,99190.13
2022-09-15T14:30:29.351Z,99194.01
2022-09-15T14:33:01.232Z,99196.06
2022-09-15T14:35:36.466Z,99186.27
2022-09-15T14:38:05.323Z,99184.54
2022-09-15T14:40:39.410Z,99180.85
2022-09-15T14:43:30.799Z,99179.80
2022-09-15T14:46:18.423Z,99180.15
2022-09-15T14:48:46.496Z,99181.10
2022-09-15T14:51:25.478Z,99180.27
2022-09-15T14:53:57.955Z,99178.31
2022-09-15T14:56:32.903Z,99173.17
2022-09-15T14:59:16.659Z,99171.23
2022-09-15T15:02:16.786Z,99173.85
2022-09-15T15:04:54.237Z,99176.16
2022-09-15T15:07:29.144Z,99177.01
2022-09-15T15:10:04.446Z,99183.96
2022-09-15T15:12:41.819Z,99183.36
2022-09-15T15:15:16.034Z,99182.63
2022-09-15T15:17:50.756Z,99182.41
2022-09-15T15:20:27.064Z,99183.10
2022-09-15T15:23:10.889Z,99180.52
2022-09-15T15:25:39.403Z,99176.14
2022-09-15T15:28:28.779Z,99176.80
2022-09-15T15:31:17.845Z,99171.61
2022-09-15T15:33:49.767Z,99170.01
2022-09-15T15:36:23.820Z,99171.15
2022-09-15T15:38:55.660Z,99173.30
2022-09-15T15:41:27.839Z,99173.23
2022-09-15T15:44:09.625Z,99178.67
2022-09-15T15:46:55.715Z,99176.55
2022-09-15T15:49:29.281Z,99176.55
2022-09-15T15:52:00.088Z,99174.82
2022-09-15T15:54:28.328Z,99176.49
2022-09-15T15:57:20.175Z,99173.90
2022-09-15T15:59:48.057Z,99178.30
2022-09-15T16:02:15.947Z,99178.58
2022-09-15T16:04:43.858Z,99176.83
2022-09-15T16:07:17.949Z,99176.08
2022-09-15T16:09:48.261Z,99181.23
2022-09-15T16:12:16.663Z,99179.37
2022-09-15T16:14:44.569Z,99179.36
2022-09-15T16:17:12.974Z,99180.84
2022-09-15T16:19:40.893Z,99177.75
2022-09-15T16:22:17.892Z,99184.12
2022-09-15T16:24:47.191Z,99181.55
2022-09-15T16:27:17.935Z,99179.11
2022-09-15T16:29:46.203Z,99178.45
2022-09-15T16:32:20.804Z,99179.15
2022-09-15T16:34:53.833Z,99186.02
2022-09-15T16:37:22.141Z,99191.66
2022-09-15T16:39:52.164Z,99189.97
2022-09-15T16:42:20.149Z,99189.42
2022-09-15T16:44:48.046Z,99192.96
2022-09-15T16:47:15.946Z,99195.92
2022-09-15T16:49:43.979Z,99195.45
2022-09-15T16:52:13.472Z,99199.67
2022-09-15T16:54:41.714Z,99197.27
2022-09-15T16:57:09.563Z,99201.56
2022-09-15T16:59:37.415Z,99206.79
2022-09-15T17:02:13.496Z,99206.22
2022-09-15T17:04:41.392Z,99210.52
2022-09-15T17:07:09.204Z,99210.30
2022-09-15T17:09:37.023Z,99209.11
2022-09-15T17:12:05.277Z,99211.23
2022-09-15T17:14:33.187Z,99210.96
2022-09-15T17:17:01.051Z,99213.22
2022-09-15T17:19:29.449Z,99214.38
2022-09-15T17:21:57.256Z,99214.39
2022-09-15T17:24:25.152Z,99210.88
2022-09-15T17:26:53.272Z,99212.46
2022-09-15T17:29:21.580Z,99212.77
2022-09-15T17:31:49.503Z,99221.88
2022-09-15T17:34:17.553Z,99221.70
2022-09-15T17:36:45.419Z,99223.24
2022-09-15T17:39:13.227Z,99224.91
2022-09-15T17:41:41.080Z,99223.70
2022-09-15T17:44:12.010Z,99221.41
2022-09-15T17:46:40.029Z,99224.92
2022-09-15T17:49:08.014Z,99228.66
2022-09-15T17:51:36.366Z,99228.00
2022-09-15T17:54:06.587Z,99234.91
2022-09-15T17:56:34.458Z,99231.98
2022-09-15T17:59:02.306Z,99230.02
2022-09-15T18:01:30.245Z,99214.70
2022-09-15T18:03:58.396Z,99229.30
2022-09-15T18:06:26.294Z,99228.21
2022-09-15T18:08:54.163Z,99227.02
2022-09-15T18:11:22.178Z,99224.14
2022-09-15T18:13:50.105Z,99225.82
2022-09-15T18:16:18.106Z,99226.52
2022-09-15T18:18:47.327Z,99227.84
2022-09-15T18:21:28.948Z,99236.36
2022-09-15T18:23:57.056Z,99238.98
2022-09-15T18:26:26.629Z,99243.80
2022-09-15T18:28:55.672Z,99244.76
2022-09-15T18:31:23.781Z,99244.28
2022-09-15T18:33:51.792Z,99240.52
2022-09-15T18:36:20.746Z,99239.23
2022-09-15T18:38:48.830Z,99237.04
2022-09-15T18:41:17.013Z,99239.85
2022-09-15T18:43:48.816Z,99238.25
2022-09-15T18:46:17.832Z,99239.64
2022-09-15T18:48:45.856Z,99240.92
2022-09-15T18:51:23.779Z,99242.16
2022-09-15T18:53:57.544Z,99243.59
2022-09-15T18:56:25.591Z,99246.58
2022-09-15T18:58:54.497Z,99245.19
2022-09-15T19:01:23.250Z,99250.80
2022-09-15T19:03:51.517Z,99251.48
2022-09-15T19:06:19.454Z,99250.95
2022-09-15T19:08:47.372Z,99253.29
2022-09-15T19:11:15.332Z,99253.79
2022-09-15T19:13:43.537Z,99259.59
2022-09-15T19:16:11.662Z,99261.39
2022-09-15T19:18:39.577Z,99263.77
2022-09-15T19:21:10.647Z,99270.41
2022-09-15T19:23:39.172Z,99266.77
2022-09-15T19:26:13.631Z,99273.79
2022-09-15T19:28:45.716Z,99273.48
2022-09-15T19:31:13.761Z,99268.88
2022-09-15T19:33:42.551Z,99273.99
2022-09-15T19:36:27.379Z,99268.15
2022-09-15T19:39:02.747Z,99267.38
2022-09-15T19:41:31.589Z,99267.57
2022-09-15T19:44:02.286Z,99270.20
2022-09-15T19:46:31.076Z,99269.50
2022-09-15T19:48:59.195Z,99268.84
2022-09-15T19:51:27.171Z,99273.32
2022-09-15T19:53:56.820Z,99269.58
2022-09-15T19:56:26.663Z,99275.34
2022-09-15T19:58:57.384Z,99275.94
2022-09-15T20:01:28.462Z,99274.08
2022-09-15T20:03:57.415Z,99278.73
2022-09-15T20:06:28.940Z,99272.59
2022-09-15T20:09:00.502Z,99278.59
2022-09-15T20:11:29.848Z,99279.60
2022-09-15T20:13:58.990Z,99281.38
2022-09-15T20:16:27.463Z,99282.73
2022-09-15T20:18:56.464Z,99281.44
2022-09-15T20:21:49.123Z,99288.66
2022-09-15T20:24:19.831Z,99286.20
2022-09-15T20:26:48.449Z,99285.59
2022-09-15T20:29:16.543Z,99290.70
2022-09-15T20:31:45.079Z,99293.58
2022-09-15T20:34:13.426Z,99294.44
2022-09-15T20:36:41.365Z,99294.46
2022-09-15T20:39:13.340Z,99294.30
2022-09-15T20:41:46.517Z,99295.66
2022-09-15T20:44:14.915Z,99293.67
2022-09-15T20:46:43.204Z,99289.64
2022-09-15T20:49:12.528Z,99291.65
2022-09-15T20:51:40.451Z,99290.75
2022-09-15T20:54:10.881Z,99288.73
2022-09-15T20:56:38.919Z,99285.63
2022-09-15T20:59:10.283Z,99290.08
2022-09-15T21:01:39.686Z,99288.59
2022-09-15T21:04:09.579Z,99291.20
2022-09-15T21:06:39.279Z,99297.88
2022-09-15T21:09:07.871Z,99300.33
2022-09-15T21:11:36.867Z,99302.95
2022-09-15T21:14:04.859Z,99299.90
2022-09-15T21:16:34.888Z,99303.51
2022-09-15T21:19:03.730Z,99301.05
2022-09-15T21:21:33.640Z,99299.55
2022-09-15T21:24:07.929Z,99302.81
2022-09-15T21:26:58.103Z,99302.63
2022-09-15T21:29:27.911Z,99306.88
2022-09-15T21:31:56.385Z,99301.78
2022-09-15T21:34:24.449Z,99294.56
2022-09-15T21:36:53.613Z,99292.60
2022-09-15T21:39:21.583Z,99289.23
2022-09-15T21:41:49.970Z,99294.44
2022-09-15T21:44:18.044Z,99296.77
2022-09-15T21:46:47.267Z,99298.73
2022-09-15T21:49:15.214Z,99299.23
2022-09-15T21:51:43.062Z,99300.99
2022-09-15T21:54:10.878Z,99302.42
2022-09-15T21:56:38.772Z,99285.91
2022-09-15T21:59:09.009Z,99305.23
2022-09-15T22:01:37.107Z,99306.94
2022-09-15T22:04:07.630Z,99310.02
2022-09-15T22:06:40.429Z,99315.61
2022-09-15T22:09:16.639Z,99311.06
2022-09-15T22:11:44.827Z,99314.20
2022-09-15T22:14:13.266Z,99314.10
2022-09-15T22:16:42.994Z,99319.30
2022-09-15T22:19:12.230Z,99317.89
2022-09-15T22:21:42.050Z,99320.48
2022-09-15T22:24:13.457Z,99321.25
2022-09-15T22:26:43.473Z,99320.11
2022-09-15T22:29:11.767Z,99320.20
2022-09-15T22:31:40.957Z,99321.41
2022-09-15T22:34:09.478Z,99326.38
2022-09-15T22:36:37.304Z,99319.26
2022-09-15T22:39:06.317Z,99327.33
2022-09-15T22:41:39.004Z,99329.04
2022-09-15T22:44:16.882Z,99326.55
2022-09-15T22:46:45.102Z,99324.08
2022-09-15T22:49:12.955Z,99324.08
2022-09-15T22:51:40.878Z,99324.17
2022-09-15T22:54:08.807Z,99328.55
2022-09-15T22:56:36.651Z,99323.56
2022-09-15T22:59:04.530Z,99327.89
2022-09-15T23:01:32.437Z,99328.30
2022-09-15T23:04:02.455Z,99329.38
2022-09-15T23:06:33.667Z,99330.64
2022-09-15T23:09:08.532Z,99329.46
2022-09-15T23:11:39.753Z,99331.59
2022-09-15T23:14:13.801Z,99337.30
2022-09-15T23:16:43.365Z,99339.58
2022-09-15T23:19:14.592Z,99335.56
2022-09-15T23:21:42.555Z,99339.75
2022-09-15T23:24:12.420Z,99339.44
2022-09-15T23:26:40.493Z,99343.65
2022-09-15T23:29:08.402Z,99340.96
2022-09-15T23:31:36.518Z,99341.92
2022-09-15T23:34:04.512Z,99341.98
2022-09-15T23:36:32.404Z,99342.04
2022-09-15T23:39:00.339Z,99343.48
2022-09-15T23:41:28.212Z,99340.48
2022-09-15T23:43:56.914Z,99338.92
2022-09-15T23:46:24.933Z,99340.16
2022-09-15T23:48:52.841Z,99345.14
2022-09-15T23:51:20.770Z,99346.36
2022-09-15T23:53:48.583Z,99346.02
2022-09-15T23:56:16.425Z,99347.09
2022-09-15T23:58:44.399Z,99351.78
